createdAt,value
2022-08-26T00:02:14.571Z,8.50
2022-08-26T00:04:46.545Z,8.90
2022-08-26T00:07:17.492Z,9.40
2022-08-26T00:09:48.826Z,10.70
2022-08-26T00:12:21.142Z,11.00
2022-08-26T00:15:09.043Z,8.50
2022-08-26T00:17:40.423Z,8.90
2022-08-26T00:20:14.450Z,9.00
2022-08-26T00:22:46.428Z,9.10
2022-08-26T00:25:18.423Z,9.50
2022-08-26T00:27:49.401Z,8.90
2022-08-26T00:30:24.189Z,10.10
2022-08-26T00:32:58.669Z,8.70
2022-08-26T00:35:30.715Z,9.50
2022-08-26T00:38:04.834Z,8.60
2022-08-26T00:40:38.299Z,9.90
2022-08-26T00:43:10.276Z,9.10
2022-08-26T00:45:46.426Z,8.70
2022-08-26T00:48:20.944Z,8.20
2022-08-26T00:50:57.769Z,8.40
2022-08-26T00:53:33.285Z,9.40
2022-08-26T00:56:07.875Z,10.90
2022-08-26T00:58:43.110Z,8.40
2022-08-26T01:01:15.259Z,9.10
2022-08-26T01:03:47.807Z,9.60
2022-08-26T01:06:18.631Z,9.50
2022-08-26T01:08:49.495Z,8.90
2022-08-26T01:11:21.022Z,8.50
2022-08-26T01:13:54.785Z,9.20
2022-08-26T01:16:26.715Z,8.60
2022-08-26T01:19:04.270Z,9.30
2022-08-26T01:21:42.863Z,8.20
2022-08-26T01:24:14.256Z,7.60
2022-08-26T01:26:46.717Z,9.00
2022-08-26T01:29:21.985Z,8.90
2022-08-26T01:31:56.939Z,9.60
2022-08-26T01:34:30.858Z,9.50
2022-08-26T01:37:06.906Z,8.00
2022-08-26T01:39:39.339Z,9.30
2022-08-26T01:42:15.122Z,9.00
2022-08-26T01:44:50.235Z,9.90
2022-08-26T01:47:24.567Z,9.70
2022-08-26T01:49:58.006Z,10.70
2022-08-26T01:52:32.797Z,8.80
2022-08-26T01:55:04.057Z,9.70
2022-08-26T01:57:35.789Z,7.90
2022-08-26T02:00:14.329Z,9.70
2022-08-26T02:02:50.327Z,9.30
2022-08-26T02:05:23.146Z,11.00
2022-08-26T02:07:54.600Z,10.40
2022-08-26T02:10:25.389Z,10.60
2022-08-26T02:12:56.527Z,10.40
2022-08-26T02:15:28.499Z,8.70
2022-08-26T02:17:59.505Z,9.20
2022-08-26T02:20:30.959Z,10.50
2022-08-26T02:23:01.861Z,9.80
2022-08-26T02:25:41.584Z,10.10
2022-08-26T02:28:14.408Z,10.30
2022-08-26T02:30:46.780Z,9.30
2022-08-26T02:33:17.481Z,10.10
2022-08-26T02:35:50.030Z,9.90
2022-08-26T02:38:21.668Z,9.80
2022-08-26T02:40:52.810Z,10.40
2022-08-26T02:43:31.164Z,10.40
2022-08-26T02:46:02.799Z,9.80
2022-08-26T02:48:33.560Z,10.00
2022-08-26T02:51:04.482Z,10.40
2022-08-26T02:53:35.717Z,11.00
2022-08-26T02:56:08.430Z,10.90
2022-08-26T02:58:39.213Z,9.50
2022-08-26T03:01:19.803Z,9.40
2022-08-26T03:03:50.849Z,9.70
2022-08-26T03:06:23.320Z,9.40
2022-08-26T03:08:55.838Z,10.80
2022-08-26T03:11:30.949Z,9.80
2022-08-26T03:14:04.785Z,10.00
2022-08-26T03:16:37.286Z,9.90
2022-08-26T03:19:10.089Z,9.80
2022-08-26T03:21:41.168Z,10.00
2022-08-26T03:24:12.906Z,10.80
2022-08-26T03:26:52.920Z,9.90
2022-08-26T03:29:42.154Z,10.10
2022-08-26T03:32:12.913Z,10.30
2022-08-26T03:34:43.555Z,9.30
2022-08-26T03:37:14.862Z,10.20
2022-08-26T03:39:45.529Z,10.80
2022-08-26T03:42:16.346Z,9.40
2022-08-26T03:44:47.194Z,10.60
2022-08-26T03:47:18.434Z,10.30
2022-08-26T03:49:49.103Z,10.20
2022-08-26T03:52:22.732Z,9.70
2022-08-26T03:54:53.381Z,9.80
2022-08-26T03:57:24.033Z,9.90
2022-08-26T03:59:54.688Z,10.20
2022-08-26T04:02:25.701Z,10.00
2022-08-26T04:04:56.783Z,10.00
2022-08-26T04:07:28.273Z,10.10
2022-08-26T04:10:02.867Z,10.70
2022-08-26T04:12:33.596Z,10.20
2022-08-26T04:15:05.048Z,11.10
2022-08-26T04:17:35.891Z,10.90
2022-08-26T04:20:08.123Z,10.40
2022-08-26T04:22:39.866Z,9.60
2022-08-26T04:25:13.126Z,9.90
2022-08-26T04:27:43.838Z,11.80
2022-08-26T04:30:16.008Z,10.30
2022-08-26T04:32:47.402Z,10.60
2022-08-26T04:35:18.578Z,11.50
2022-08-26T04:37:53.022Z,10.50
2022-08-26T04:40:24.374Z,11.00
2022-08-26T04:42:56.873Z,11.50
2022-08-26T04:47:58.564Z,9.40
2022-08-26T04:50:29.331Z,9.00
2022-08-26T04:53:01.039Z,10.50
2022-08-26T04:55:38.227Z,9.60
2022-08-26T04:58:10.636Z,10.50
2022-08-26T05:00:41.546Z,10.70
2022-08-26T05:03:12.214Z,11.00
2022-08-26T05:05:47.369Z,10.40
2022-08-26T05:08:19.948Z,10.40
2022-08-26T05:10:54.623Z,9.50
2022-08-26T05:13:28.660Z,10.20
2022-08-26T05:16:03.234Z,10.40
2022-08-26T05:18:34.713Z,10.70
2022-08-26T05:21:07.373Z,10.30
2022-08-26T05:23:39.017Z,10.90
2022-08-26T05:26:11.730Z,10.30
2022-08-26T05:28:42.586Z,9.60
2022-08-26T05:31:18.461Z,11.30
2022-08-26T05:33:49.702Z,11.10
2022-08-26T05:36:24.656Z,10.80
2022-08-26T05:38:59.022Z,10.70
2022-08-26T05:41:34.355Z,10.60
2022-08-26T05:44:09.998Z,10.60
2022-08-26T05:46:42.588Z,10.80
2022-08-26T05:49:16.706Z,10.20
2022-08-26T05:51:48.169Z,10.00
2022-08-26T05:54:22.298Z,9.90
2022-08-26T05:59:24.451Z,9.50
2022-08-26T06:01:56.332Z,10.00
2022-08-26T06:07:00.300Z,10.40
2022-08-26T06:09:31.546Z,9.70
2022-08-26T06:12:03.440Z,9.70
2022-08-26T06:14:36.212Z,10.20
2022-08-26T06:17:09.626Z,10.60
2022-08-26T06:19:41.389Z,10.70
2022-08-26T06:25:14.394Z,9.80
2022-08-26T06:27:45.015Z,9.30
2022-08-26T06:30:16.701Z,9.80
2022-08-26T06:35:16.916Z,8.50
2022-08-26T06:37:47.663Z,10.00
2022-08-26T06:40:18.603Z,9.00
2022-08-26T06:42:50.195Z,9.70
2022-08-26T06:45:21.533Z,9.50
2022-08-26T06:47:52.910Z,9.80
2022-08-26T06:50:23.613Z,10.00
2022-08-26T06:52:55.691Z,9.30
2022-08-26T06:55:27.822Z,9.70
2022-08-26T06:57:59.032Z,9.00
2022-08-26T07:00:32.091Z,8.60
2022-08-26T07:03:03.080Z,9.40
2022-08-26T07:05:35.070Z,8.80
2022-08-26T07:08:06.610Z,9.90
2022-08-26T07:10:38.252Z,8.90
2022-08-26T07:13:10.202Z,12.30
2022-08-26T07:15:43.966Z,9.70
2022-08-26T07:18:14.622Z,10.20
2022-08-26T07:20:45.560Z,9.60
2022-08-26T07:23:16.564Z,8.90
2022-08-26T07:25:48.361Z,9.30
2022-08-26T07:28:20.066Z,8.90
2022-08-26T07:30:50.844Z,9.80
2022-08-26T07:33:23.926Z,8.60
2022-08-26T07:35:54.678Z,9.10
2022-08-26T07:38:25.378Z,9.80
2022-08-26T07:40:56.624Z,9.90
2022-08-26T07:43:27.364Z,9.90
2022-08-26T07:46:00.183Z,11.70
2022-08-26T07:48:31.357Z,10.10
2022-08-26T07:51:05.377Z,10.20
2022-08-26T07:53:36.890Z,9.70
2022-08-26T07:56:08.089Z,11.40
2022-08-26T07:58:40.465Z,9.80
2022-08-26T08:03:41.252Z,8.90
2022-08-26T08:06:12.089Z,7.60
2022-08-26T08:08:42.781Z,7.60
2022-08-26T08:11:13.696Z,7.80
2022-08-26T08:13:44.439Z,9.00
2022-08-26T08:16:16.646Z,7.50
2022-08-26T08:18:47.974Z,7.90
2022-08-26T08:21:23.587Z,8.10
2022-08-26T08:23:57.433Z,7.70
2022-08-26T08:26:28.798Z,8.20
2022-08-26T08:28:59.948Z,7.10
2022-08-26T08:34:21.582Z,6.90
2022-08-26T08:39:24.960Z,7.60
2022-08-26T08:42:13.384Z,7.30
2022-08-26T08:44:52.031Z,7.00
2022-08-26T08:47:30.903Z,7.20
2022-08-26T08:50:05.565Z,6.60
2022-08-26T08:52:38.347Z,6.30
2022-08-26T08:55:14.803Z,5.40
2022-08-26T08:58:02.265Z,6.60
2022-08-26T09:00:44.259Z,5.80
2022-08-26T09:03:29.674Z,5.60
2022-08-26T09:06:02.966Z,6.50
2022-08-26T09:08:37.460Z,6.20
2022-08-26T09:11:08.684Z,6.20
2022-08-26T09:13:41.222Z,5.80
2022-08-26T09:16:18.943Z,6.00
2022-08-26T09:19:12.242Z,6.00
2022-08-26T09:21:43.306Z,5.90
2022-08-26T09:24:15.193Z,5.70
2022-08-26T09:26:50.041Z,5.90
2022-08-26T09:29:27.901Z,6.50
2022-08-26T09:32:19.423Z,6.00
2022-08-26T09:35:00.000Z,6.40
2022-08-26T09:40:27.475Z,6.20
2022-08-26T09:43:13.612Z,6.50
2022-08-26T09:45:51.171Z,6.90
2022-08-26T09:48:36.022Z,6.20
2022-08-26T09:51:27.497Z,6.10
2022-08-26T09:54:00.651Z,5.90
2022-08-26T09:56:33.437Z,5.90
2022-08-26T09:59:06.500Z,6.30
2022-08-26T10:01:41.958Z,6.20
2022-08-26T10:04:16.274Z,6.30
2022-08-26T10:07:00.232Z,6.60
2022-08-26T10:09:34.399Z,6.30
2022-08-26T10:12:09.386Z,6.20
2022-08-26T10:14:47.525Z,6.60
2022-08-26T10:17:30.918Z,6.60
2022-08-26T10:20:15.785Z,6.60
2022-08-26T10:23:00.443Z,6.20
2022-08-26T10:25:35.479Z,7.20
2022-08-26T10:28:13.413Z,7.80
2022-08-26T10:30:51.637Z,7.00
2022-08-26T10:33:23.833Z,6.50
2022-08-26T10:35:58.591Z,6.60
2022-08-26T10:38:34.902Z,8.00
2022-08-26T10:41:13.122Z,7.40
2022-08-26T10:43:50.139Z,6.90
2022-08-26T10:46:27.502Z,6.10
2022-08-26T10:49:03.191Z,7.70
2022-08-26T10:51:45.640Z,6.50
2022-08-26T10:54:21.940Z,6.10
2022-08-26T10:57:02.587Z,5.30
2022-08-26T10:59:47.624Z,4.90
2022-08-26T11:02:26.542Z,3.40
2022-08-26T11:04:59.424Z,3.60
2022-08-26T11:07:40.713Z,3.30
2022-08-26T11:10:34.002Z,3.40
2022-08-26T11:13:06.987Z,4.30
2022-08-26T11:16:01.415Z,3.50
2022-08-26T11:18:48.715Z,3.80
2022-08-26T11:22:07.164Z,2.50
2022-08-26T11:24:46.886Z,3.00
2022-08-26T11:27:55.074Z,3.50
2022-08-26T11:30:56.811Z,3.60
2022-08-26T11:33:58.174Z,3.80
2022-08-26T11:39:28.630Z,3.80
2022-08-26T11:42:03.093Z,3.60
2022-08-26T11:44:49.411Z,3.70
2022-08-26T11:47:29.540Z,3.70
2022-08-26T11:50:19.131Z,3.20
2022-08-26T11:53:02.030Z,3.80
2022-08-26T11:55:34.996Z,4.40
2022-08-26T11:58:07.687Z,2.70
2022-08-26T12:00:52.575Z,2.40
2022-08-26T12:03:27.070Z,2.80
2022-08-26T12:05:58.953Z,2.00
2022-08-26T12:11:13.826Z,3.20
2022-08-26T12:13:54.718Z,4.20
2022-08-26T12:16:30.134Z,3.60
2022-08-26T12:19:01.013Z,2.20
2022-08-26T12:24:07.216Z,1.70
2022-08-26T12:26:39.588Z,1.50
2022-08-26T12:29:27.255Z,1.60
2022-08-26T12:32:14.453Z,1.90
2022-08-26T12:34:49.322Z,2.30
2022-08-26T12:37:20.980Z,2.50
2022-08-26T12:39:52.439Z,2.40
2022-08-26T12:42:43.523Z,2.10
2022-08-26T12:45:14.758Z,2.20
2022-08-26T12:47:48.393Z,3.20
2022-08-26T12:50:25.338Z,2.20
2022-08-26T12:53:04.459Z,2.50
2022-08-26T12:55:42.830Z,2.60
2022-08-26T12:58:23.581Z,2.90
2022-08-26T13:00:55.856Z,2.50
2022-08-26T13:03:43.874Z,2.60
2022-08-26T13:06:30.032Z,3.00
2022-08-26T13:09:06.367Z,3.20
2022-08-26T13:11:57.452Z,3.00
2022-08-26T13:14:28.342Z,3.10
2022-08-26T13:16:59.378Z,3.60
2022-08-26T13:19:31.482Z,3.50
2022-08-26T13:22:05.388Z,3.20
2022-08-26T13:24:39.199Z,3.40
2022-08-26T13:27:12.943Z,3.70
2022-08-26T13:29:43.714Z,3.50
2022-08-26T13:32:15.436Z,4.10
2022-08-26T13:34:51.291Z,3.30
2022-08-26T13:37:24.514Z,3.50
2022-08-26T13:40:10.402Z,3.30
2022-08-26T13:42:49.375Z,3.40
2022-08-26T13:45:20.808Z,3.80
2022-08-26T13:47:51.793Z,3.30
2022-08-26T13:50:22.582Z,4.10
2022-08-26T13:52:53.671Z,3.80
2022-08-26T13:55:24.779Z,3.60
2022-08-26T13:57:56.305Z,3.60
2022-08-26T14:00:27.169Z,4.30
2022-08-26T14:02:58.651Z,4.30
2022-08-26T14:05:29.977Z,4.00
2022-08-26T14:08:01.079Z,4.30
2022-08-26T14:10:31.986Z,3.20
2022-08-26T14:13:02.736Z,2.80
2022-08-26T14:15:54.989Z,2.80
2022-08-26T14:18:31.255Z,2.90
2022-08-26T14:21:02.168Z,2.80
2022-08-26T14:23:33.115Z,2.80
2022-08-26T14:26:08.199Z,2.70
2022-08-26T14:28:39.395Z,3.00
2022-08-26T14:31:11.768Z,2.90
2022-08-26T14:33:42.650Z,2.90
2022-08-26T14:36:31.532Z,3.20
2022-08-26T14:39:06.064Z,3.30
2022-08-26T14:41:39.358Z,3.50
2022-08-26T14:44:14.620Z,3.20
2022-08-26T14:46:48.618Z,2.80
2022-08-26T14:49:20.674Z,3.20
2022-08-26T14:51:51.592Z,2.80
2022-08-26T14:54:41.248Z,2.80
2022-08-26T14:57:15.679Z,3.20
2022-08-26T14:59:50.550Z,2.80
2022-08-26T15:02:33.543Z,2.90
2022-08-26T15:05:05.237Z,2.90
2022-08-26T15:07:36.013Z,3.10
2022-08-26T15:10:08.644Z,2.90
2022-08-26T15:12:40.421Z,3.50
2022-08-26T15:15:15.005Z,3.00
2022-08-26T15:17:46.327Z,3.10
2022-08-26T15:20:20.609Z,3.30
2022-08-26T15:22:51.408Z,3.40
2022-08-26T15:25:24.568Z,3.20
2022-08-26T15:27:55.433Z,3.80
2022-08-26T15:30:27.348Z,3.30
2022-08-26T15:32:58.392Z,3.60
2022-08-26T15:35:29.264Z,5.50
2022-08-26T15:38:03.868Z,4.10
2022-08-26T15:40:34.685Z,3.20
2022-08-26T15:43:25.773Z,3.50
2022-08-26T15:45:57.943Z,3.20
2022-08-26T15:48:29.434Z,2.90
2022-08-26T15:51:01.994Z,3.50
2022-08-26T15:53:34.923Z,2.50
2022-08-26T15:56:06.511Z,2.60
2022-08-26T15:58:39.100Z,2.90
2022-08-26T16:01:11.807Z,2.50
2022-08-26T16:03:42.481Z,2.50
2022-08-26T16:06:16.018Z,2.20
2022-08-26T16:08:46.818Z,2.20
2022-08-26T16:11:18.923Z,2.10
2022-08-26T16:13:50.141Z,2.70
2022-08-26T16:16:21.574Z,2.40
2022-08-26T16:18:52.411Z,2.60
2022-08-26T16:21:27.871Z,2.70
2022-08-26T16:23:59.310Z,3.20
2022-08-26T16:26:33.314Z,2.80
2022-08-26T16:29:07.669Z,2.60
2022-08-26T16:31:39.091Z,2.10
2022-08-26T16:34:10.990Z,2.70
2022-08-26T16:36:42.145Z,2.50
2022-08-26T16:39:13.119Z,3.10
2022-08-26T16:41:44.293Z,2.90
2022-08-26T16:44:15.039Z,3.30
2022-08-26T16:46:46.224Z,2.30
2022-08-26T16:49:17.022Z,2.70
2022-08-26T16:51:47.826Z,3.40
2022-08-26T16:54:18.730Z,2.90
2022-08-26T16:56:49.713Z,3.60
2022-08-26T16:59:20.633Z,3.20
2022-08-26T17:01:51.759Z,2.80
2022-08-26T17:04:22.602Z,3.00
2022-08-26T17:06:53.587Z,2.90
2022-08-26T17:09:24.497Z,3.90
2022-08-26T17:11:55.602Z,3.20
2022-08-26T17:14:26.809Z,3.80
2022-08-26T17:16:57.750Z,3.30
2022-08-26T17:19:29.208Z,3.30
2022-08-26T17:22:05.735Z,3.40
2022-08-26T17:24:37.454Z,3.60
2022-08-26T17:27:08.853Z,4.00
2022-08-26T17:29:39.708Z,3.30
2022-08-26T17:32:10.497Z,3.80
2022-08-26T17:34:41.167Z,3.10
2022-08-26T17:37:11.933Z,3.40
2022-08-26T17:39:44.115Z,3.10
2022-08-26T17:42:15.099Z,3.20
2022-08-26T17:44:48.694Z,3.30
2022-08-26T17:47:19.730Z,2.80
2022-08-26T17:49:50.593Z,3.60
2022-08-26T17:52:21.558Z,3.10
2022-08-26T17:54:54.234Z,4.10
2022-08-26T17:57:25.259Z,3.60
2022-08-26T17:59:56.284Z,3.60
2022-08-26T18:02:34.358Z,3.20
2022-08-26T18:07:34.948Z,3.20
2022-08-26T18:10:17.609Z,3.40
2022-08-26T18:12:48.991Z,4.20
2022-08-26T18:15:22.482Z,5.10
2022-08-26T18:17:53.280Z,4.40
2022-08-26T18:20:24.130Z,3.70
2022-08-26T18:22:55.039Z,3.40
2022-08-26T18:25:26.113Z,3.70
2022-08-26T18:27:56.922Z,3.80
2022-08-26T18:30:27.920Z,3.80
2022-08-26T18:32:58.698Z,4.30
2022-08-26T18:35:30.430Z,3.60
2022-08-26T18:38:10.610Z,3.50
2022-08-26T18:40:43.566Z,3.00
2022-08-26T18:43:14.703Z,3.40
2022-08-26T18:45:45.530Z,3.60
2022-08-26T18:48:16.745Z,3.00
2022-08-26T18:50:47.595Z,4.20
2022-08-26T18:53:18.475Z,3.80
2022-08-26T18:55:49.133Z,3.60
2022-08-26T18:58:19.880Z,3.90
2022-08-26T19:00:50.595Z,4.50
2022-08-26T19:03:21.487Z,4.50
2022-08-26T19:05:52.563Z,4.30
2022-08-26T19:08:23.381Z,4.00
2022-08-26T19:10:54.075Z,5.30
2022-08-26T19:13:24.836Z,3.20
2022-08-26T19:15:55.677Z,3.40
2022-08-26T19:18:26.486Z,3.30
2022-08-26T19:20:57.434Z,3.30
2022-08-26T19:23:32.255Z,5.30
2022-08-26T19:26:06.823Z,4.40
2022-08-26T19:28:39.733Z,3.80
2022-08-26T19:31:11.719Z,4.90
2022-08-26T19:33:45.114Z,5.40
2022-08-26T19:36:17.881Z,4.50
2022-08-26T19:38:49.313Z,4.10
2022-08-26T19:41:24.562Z,3.60
2022-08-26T19:43:58.987Z,3.60
2022-08-26T19:46:30.628Z,3.50
2022-08-26T19:49:01.367Z,3.40
2022-08-26T19:51:34.933Z,3.70
2022-08-26T19:54:06.637Z,3.50
2022-08-26T19:56:37.557Z,3.50
2022-08-26T19:59:08.243Z,3.40
2022-08-26T20:01:39.058Z,3.30
2022-08-26T20:04:10.139Z,4.30
2022-08-26T20:06:40.864Z,4.80
2022-08-26T20:09:11.930Z,4.60
2022-08-26T20:11:42.716Z,3.80
2022-08-26T20:14:13.606Z,4.80
2022-08-26T20:16:47.591Z,3.30
2022-08-26T20:19:37.607Z,4.10
2022-08-26T20:22:08.875Z,3.70
2022-08-26T20:24:40.014Z,4.90
2022-08-26T20:27:10.835Z,3.40
2022-08-26T20:29:43.047Z,3.40
2022-08-26T20:32:14.253Z,3.30
2022-08-26T20:34:45.226Z,4.00
2022-08-26T20:37:16.191Z,4.10
2022-08-26T20:39:52.570Z,3.90
2022-08-26T20:42:23.390Z,3.90
2022-08-26T20:44:54.768Z,3.40
2022-08-26T20:49:55.168Z,4.40
2022-08-26T20:52:26.445Z,4.30
2022-08-26T20:54:57.173Z,4.10
2022-08-26T20:57:28.079Z,4.70
2022-08-26T20:59:58.852Z,4.90
2022-08-26T21:02:29.692Z,5.00
2022-08-26T21:05:00.859Z,4.70
2022-08-26T21:07:31.625Z,5.40
2022-08-26T21:10:02.362Z,3.70
2022-08-26T21:12:33.033Z,4.50
2022-08-26T21:15:04.538Z,4.20
2022-08-26T21:17:35.887Z,4.10
2022-08-26T21:20:08.466Z,4.50
2022-08-26T21:22:39.234Z,4.70
2022-08-26T21:25:11.417Z,5.10
2022-08-26T21:27:42.127Z,4.50
2022-08-26T21:30:15.529Z,4.30
2022-08-26T21:32:46.311Z,4.70
2022-08-26T21:35:17.462Z,4.80
2022-08-26T21:37:48.221Z,4.00
2022-08-26T21:40:19.494Z,4.50
2022-08-26T21:42:50.463Z,4.60
2022-08-26T21:45:21.538Z,4.70
2022-08-26T21:47:52.469Z,4.60
2022-08-26T21:50:23.512Z,4.20
2022-08-26T21:52:54.262Z,6.10
2022-08-26T21:55:25.025Z,4.50
2022-08-26T21:57:56.282Z,5.20
2022-08-26T22:00:28.517Z,4.40
2022-08-26T22:03:00.915Z,3.90
2022-08-26T22:05:32.476Z,4.70
2022-08-26T22:08:03.308Z,4.20
2022-08-26T22:10:34.427Z,4.60
2022-08-26T22:13:06.566Z,4.50
2022-08-26T22:15:40.460Z,4.60
2022-08-26T22:18:11.302Z,4.20
2022-08-26T22:20:44.401Z,4.00
2022-08-26T22:23:15.156Z,5.00
2022-08-26T22:25:46.316Z,4.60
2022-08-26T22:28:17.740Z,4.20
2022-08-26T22:30:49.581Z,5.00
2022-08-26T22:33:22.695Z,4.20
2022-08-26T22:35:54.596Z,4.80
2022-08-26T22:38:25.506Z,4.40
2022-08-26T22:40:57.508Z,4.30
2022-08-26T22:43:29.957Z,4.40
2022-08-26T22:46:00.862Z,4.80
2022-08-26T22:48:31.787Z,4.60
2022-08-26T22:51:02.534Z,4.30
2022-08-26T22:53:35.855Z,4.40
2022-08-26T22:56:09.858Z,4.50
2022-08-26T22:58:40.614Z,5.00
2022-08-26T23:01:11.450Z,4.40
2022-08-26T23:03:42.413Z,4.10
2022-08-26T23:06:13.614Z,4.20
2022-08-26T23:08:47.532Z,4.30
2022-08-26T23:11:19.199Z,4.30
2022-08-26T23:13:50.424Z,4.30
2022-08-26T23:16:21.451Z,3.20
2022-08-26T23:18:52.283Z,4.50
2022-08-26T23:21:25.517Z,3.90
2022-08-26T23:23:56.409Z,3.60
2022-08-26T23:26:27.231Z,3.30
2022-08-26T23:28:58.514Z,3.40
2022-08-26T23:31:29.447Z,3.60
2022-08-26T23:34:18.275Z,4.00
2022-08-26T23:36:49.322Z,4.00
2022-08-26T23:39:26.380Z,3.80
2022-08-26T23:41:58.175Z,4.50
2022-08-26T23:44:30.544Z,4.40
2022-08-26T23:47:02.375Z,4.30
2022-08-26T23:49:33.884Z,4.30
2022-08-26T23:52:24.231Z,3.80
2022-08-26T23:54:55.634Z,4.20
2022-08-26T23:57:28.759Z,4.20
2022-08-26T23:59:59.574Z,4.40
